createdAt,value
2022-08-17T00:00:34.246Z,99597.56
2022-08-17T00:01:52.038Z,99596.28
2022-08-17T00:02:55.741Z,99599.03
2022-08-17T00:03:57.763Z,99594.53
2022-08-17T00:04:59.750Z,99595.34
2022-08-17T00:06:02.941Z,99598.22
2022-08-17T00:07:04.555Z,99588.00
2022-08-17T00:08:06.380Z,99595.28
2022-08-17T00:09:08.096Z,99589.56
2022-08-17T00:10:09.752Z,99594.84
2022-08-17T00:11:12.832Z,99596.03
2022-08-17T00:12:40.764Z,99594.41
2022-08-17T00:13:37.303Z,99594.41
2022-08-17T00:14:38.849Z,99586.22
2022-08-17T00:15:40.353Z,99597.63
2022-08-17T00:16:55.461Z,99589.47
2022-08-17T00:17:59.039Z,99601.25
2022-08-17T00:19:08.056Z,99593.91
2022-08-17T00:20:10.944Z,99590.22
2022-08-17T00:21:12.461Z,99589.41
2022-08-17T00:22:31.261Z,99586.91
2022-08-17T00:23:36.706Z,99593.38
2022-08-17T00:24:38.303Z,99598.72
2022-08-17T00:25:40.545Z,99582.78
2022-08-17T00:26:45.220Z,99586.47
2022-08-17T00:27:47.437Z,99581.97
2022-08-17T00:28:48.927Z,99583.63
2022-08-17T00:29:53.493Z,99580.31
2022-08-17T00:30:55.236Z,99573.78
2022-08-17T00:31:56.727Z,99583.19
2022-08-17T00:33:12.614Z,99578.69
2022-08-17T00:34:17.963Z,99581.53
2022-08-17T00:35:20.034Z,99584.38
2022-08-17T00:36:21.532Z,99587.25
2022-08-17T00:37:23.042Z,99593.34
2022-08-17T00:38:24.658Z,99578.19
2022-08-17T00:39:26.333Z,99587.09
2022-08-17T00:40:44.403Z,99586.66
2022-08-17T00:41:46.748Z,99582.59
2022-08-17T00:42:48.551Z,99582.16
2022-08-17T00:43:54.126Z,99579.69
2022-08-17T00:44:55.658Z,99587.44
2022-08-17T00:45:57.514Z,99582.94
2022-08-17T00:46:59.011Z,99585.78
2022-08-17T00:48:00.807Z,99578.44
2022-08-17T00:49:02.563Z,99584.97
2022-08-17T00:50:04.888Z,99569.06
2022-08-17T00:51:09.595Z,99573.56
2022-08-17T00:52:16.532Z,99569.88
2022-08-17T00:53:18.107Z,99578.44
2022-08-17T00:54:24.972Z,99573.56
2022-08-17T00:55:26.511Z,99568.22
2022-08-17T00:56:32.790Z,99580.06
2022-08-17T00:57:38.263Z,99576.78
2022-08-17T00:58:39.748Z,99573.94
2022-08-17T00:59:43.046Z,99572.72
2022-08-17T01:00:45.596Z,99578.44
2022-08-17T01:01:47.951Z,99582.50
2022-08-17T01:02:49.443Z,99582.50
2022-08-17T01:03:51.855Z,99577.59
2022-08-17T01:04:53.419Z,99570.66
2022-08-17T01:05:55.202Z,99575.13
2022-08-17T01:06:57.008Z,99573.50
2022-08-17T01:07:58.987Z,99579.19
2022-08-17T01:09:00.540Z,99572.56
2022-08-17T01:10:02.847Z,99576.22
2022-08-17T01:11:05.475Z,99581.09
2022-08-17T01:12:09.020Z,99570.09
2022-08-17T01:13:11.208Z,99568.44
2022-08-17T01:14:13.297Z,99567.63
2022-08-17T01:15:15.160Z,99563.88
2022-08-17T01:16:26.462Z,99567.13
2022-08-17T01:17:28.542Z,99562.63
2022-08-17T01:18:30.106Z,99556.91
2022-08-17T01:19:32.511Z,99562.97
2022-08-17T01:20:42.637Z,99559.28
2022-08-17T01:21:51.170Z,99561.31
2022-08-17T01:22:53.031Z,99563.34
2022-08-17T01:23:54.592Z,99565.38
2022-08-17T01:25:00.142Z,99571.09
2022-08-17T01:26:06.081Z,99566.19
2022-08-17T01:27:10.269Z,99568.22
2022-08-17T01:28:12.242Z,99562.53
2022-08-17T01:29:33.776Z,99573.94
2022-08-17T01:30:58.760Z,99567.41
2022-08-17T01:31:58.036Z,99567.78
2022-08-17T01:32:59.712Z,99564.88
2022-08-17T01:34:02.012Z,99567.28
2022-08-17T01:35:04.044Z,99570.16
2022-08-17T01:36:06.917Z,99572.56
2022-08-17T01:37:08.408Z,99568.03
2022-08-17T01:38:09.926Z,99574.94
2022-08-17T01:39:17.251Z,99569.63
2022-08-17T01:40:18.719Z,99570.81
2022-08-17T01:41:20.434Z,99566.31
2022-08-17T01:42:22.014Z,99558.59
2022-08-17T01:43:27.257Z,99560.63
2022-08-17T01:44:28.973Z,99554.91
2022-08-17T01:45:32.155Z,99570.38
2022-08-17T01:46:34.536Z,99558.97
2022-08-17T01:47:37.347Z,99567.91
2022-08-17T01:48:39.166Z,99565.88
2022-08-17T01:49:40.871Z,99566.25
2022-08-17T01:50:43.052Z,99565.44
2022-08-17T01:51:44.567Z,99571.13
2022-08-17T01:52:46.715Z,99567.84
2022-08-17T01:53:49.613Z,99569.06
2022-08-17T01:54:51.213Z,99570.22
2022-08-17T01:55:53.924Z,99575.94
2022-08-17T01:56:55.478Z,99582.47
2022-08-17T01:57:58.182Z,99571.44
2022-08-17T01:59:00.583Z,99574.66
2022-08-17T02:00:02.186Z,99574.59
2022-08-17T02:01:14.725Z,99581.50
2022-08-17T02:02:30.397Z,99582.72
2022-08-17T02:03:34.470Z,99577.38
2022-08-17T02:04:36.020Z,99578.97
2022-08-17T02:05:37.531Z,99580.13
2022-08-17T02:06:44.995Z,99573.16
2022-08-17T02:07:59.574Z,99571.16
2022-08-17T02:09:03.797Z,99565.44
2022-08-17T02:10:05.941Z,99572.34
2022-08-17T02:11:21.837Z,99574.00
2022-08-17T02:12:38.591Z,99559.75
2022-08-17T02:13:41.652Z,99565.38
2022-08-17T02:14:43.995Z,99567.41
2022-08-17T02:15:46.095Z,99564.13
2022-08-17T02:16:47.653Z,99562.47
2022-08-17T02:17:49.142Z,99568.16
2022-08-17T02:18:56.375Z,99566.13
2022-08-17T02:19:57.997Z,99565.31
2022-08-17T02:20:59.507Z,99573.03
2022-08-17T02:22:01.292Z,99564.88
2022-08-17T02:23:02.946Z,99572.59
2022-08-17T02:24:08.307Z,99573.78
2022-08-17T02:25:10.163Z,99568.91
2022-08-17T02:26:11.764Z,99575.44
2022-08-17T02:27:27.227Z,99577.34
2022-08-17T02:28:28.859Z,99565.50
2022-08-17T02:29:30.411Z,99580.13
2022-08-17T02:31:01.582Z,99574.44
2022-08-17T02:31:54.690Z,99582.59
2022-08-17T02:32:56.180Z,99581.78
2022-08-17T02:34:03.864Z,99579.75
2022-08-17T02:35:06.631Z,99581.72
2022-08-17T02:36:11.151Z,99578.47
2022-08-17T02:37:13.011Z,99585.75
2022-08-17T02:38:14.497Z,99580.88
2022-08-17T02:39:16.058Z,99591.47
2022-08-17T02:40:17.709Z,99590.63
2022-08-17T02:41:38.331Z,99586.50
2022-08-17T02:42:40.333Z,99583.28
2022-08-17T02:43:42.413Z,99581.59
2022-08-17T02:44:44.148Z,99581.59
2022-08-17T02:45:45.767Z,99574.25
2022-08-17T02:46:47.268Z,99574.63
2022-08-17T02:47:48.799Z,99578.31
2022-08-17T02:48:50.288Z,99582.38
2022-08-17T02:49:55.552Z,99579.97
2022-08-17T02:50:57.599Z,99574.25
2022-08-17T02:51:59.115Z,99579.97
2022-08-17T02:53:01.842Z,99587.69
2022-08-17T02:54:41.509Z,99591.34
2022-08-17T02:55:44.209Z,99590.16
2022-08-17T02:56:45.722Z,99589.34
2022-08-17T02:57:47.351Z,99580.78
2022-08-17T02:58:49.181Z,99585.66
2022-08-17T02:59:50.696Z,99584.84
2022-08-17T03:00:52.184Z,99589.72
2022-08-17T03:01:53.860Z,99584.84
2022-08-17T03:02:56.544Z,99591.34
2022-08-17T03:03:58.037Z,99585.66
2022-08-17T03:04:59.656Z,99588.50
2022-08-17T03:06:01.202Z,99584.47
2022-08-17T03:07:03.250Z,99575.91
2022-08-17T03:08:05.104Z,99581.59
2022-08-17T03:09:06.597Z,99581.59
2022-08-17T03:10:08.411Z,99577.94
2022-08-17T03:11:10.443Z,99577.50
2022-08-17T03:12:12.900Z,99581.53
2022-08-17T03:13:14.628Z,99569.31
2022-08-17T03:14:16.263Z,99570.97
2022-08-17T03:15:20.002Z,99566.91
2022-08-17T03:16:21.487Z,99573.00
2022-08-17T03:17:23.008Z,99571.34
2022-08-17T03:18:26.350Z,99575.34
2022-08-17T03:19:28.042Z,99582.59
2022-08-17T03:20:30.251Z,99572.03
2022-08-17T03:21:32.056Z,99577.25
2022-08-17T03:22:38.514Z,99582.94
2022-08-17T03:23:42.206Z,99584.16
2022-08-17T03:24:43.840Z,99589.84
2022-08-17T03:25:46.739Z,99580.84
2022-08-17T03:26:48.435Z,99584.16
2022-08-17T03:27:50.244Z,99583.34
2022-08-17T03:28:53.129Z,99581.69
2022-08-17T03:29:55.176Z,99588.56
2022-08-17T03:30:56.808Z,99580.41
2022-08-17T03:31:58.320Z,99586.09
2022-08-17T03:33:00.248Z,99578.00
2022-08-17T03:34:01.777Z,99582.06
2022-08-17T03:35:03.369Z,99576.34
2022-08-17T03:36:05.072Z,99573.88
2022-08-17T03:37:06.647Z,99578.75
2022-08-17T03:38:08.859Z,99572.25
2022-08-17T03:39:10.395Z,99570.59
2022-08-17T03:40:12.083Z,99573.06
2022-08-17T03:41:13.927Z,99570.22
2022-08-17T03:42:31.792Z,99564.16
2022-08-17T03:43:34.655Z,99562.13
2022-08-17T03:44:36.192Z,99564.16
2022-08-17T03:45:56.421Z,99565.41
2022-08-17T03:47:16.411Z,99568.25
2022-08-17T03:48:36.686Z,99562.56
2022-08-17T03:49:56.674Z,99568.25
2022-08-17T03:51:17.177Z,99565.41
2022-08-17T03:52:37.418Z,99562.56
2022-08-17T03:54:11.925Z,99562.56
2022-08-17T03:55:36.166Z,99561.38
2022-08-17T03:56:43.775Z,99560.53
2022-08-17T03:57:45.873Z,99558.91
2022-08-17T03:58:47.361Z,99555.22
2022-08-17T03:59:49.459Z,99553.56
2022-08-17T04:00:50.950Z,99550.72
2022-08-17T04:01:53.324Z,99560.91
2022-08-17T04:02:54.979Z,99555.22
2022-08-17T04:03:56.478Z,99562.13
2022-08-17T04:04:58.069Z,99556.81
2022-08-17T04:06:24.562Z,99551.94
2022-08-17T04:07:27.589Z,99560.47
2022-08-17T04:08:29.517Z,99564.97
2022-08-17T04:09:31.123Z,99558.44
2022-08-17T04:10:33.913Z,99569.47
2022-08-17T04:11:36.127Z,99570.66
2022-08-17T04:12:48.567Z,99573.50
2022-08-17T04:13:50.247Z,99574.34
2022-08-17T04:14:54.698Z,99574.25
2022-08-17T04:15:59.168Z,99576.75
2022-08-17T04:17:00.647Z,99576.28
2022-08-17T04:18:02.145Z,99584.00
2022-08-17T04:19:03.802Z,99575.47
2022-08-17T04:20:05.679Z,99588.13
2022-08-17T04:21:08.620Z,99585.66
2022-08-17T04:22:10.185Z,99584.09
2022-08-17T04:23:33.772Z,99586.94
2022-08-17T04:24:36.032Z,99595.84
2022-08-17T04:25:39.331Z,99605.59
2022-08-17T04:26:52.772Z,99602.38
2022-08-17T04:27:55.339Z,99613.75
2022-08-17T04:28:58.498Z,99617.81
2022-08-17T04:30:00.288Z,99635.66
2022-08-17T04:31:01.864Z,99656.69
2022-08-17T04:32:03.515Z,99659.75
2022-08-17T04:33:07.240Z,99664.34
2022-08-17T04:34:09.422Z,99669.94
2022-08-17T04:35:11.331Z,99673.16
2022-08-17T04:36:13.575Z,99661.22
2022-08-17T04:37:15.088Z,99661.69
2022-08-17T04:38:17.342Z,99660.13
2022-08-17T04:39:18.831Z,99648.84
2022-08-17T04:40:39.462Z,99642.41
2022-08-17T04:41:59.534Z,99631.09
2022-08-17T04:43:02.568Z,99637.22
2022-08-17T04:44:04.567Z,99632.81
2022-08-17T04:45:06.336Z,99622.25
2022-08-17T04:46:08.711Z,99634.94
2022-08-17T04:47:10.646Z,99616.22
2022-08-17T04:48:14.767Z,99647.63
2022-08-17T04:49:17.573Z,99649.25
2022-08-17T04:50:19.060Z,99636.66
2022-08-17T04:51:20.576Z,99642.00
2022-08-17T04:52:29.792Z,99629.84
2022-08-17T04:53:44.428Z,99625.81
2022-08-17T04:54:46.016Z,99623.44
2022-08-17T04:55:47.927Z,99623.88
2022-08-17T04:56:49.471Z,99625.53
2022-08-17T04:57:51.040Z,99632.06
2022-08-17T04:58:53.945Z,99632.50
2022-08-17T04:59:55.452Z,99633.78
2022-08-17T05:00:57.151Z,99630.94
2022-08-17T05:01:58.695Z,99622.84
2022-08-17T05:03:00.315Z,99620.28
2022-08-17T05:04:33.322Z,99617.63
2022-08-17T05:05:25.362Z,99612.38
2022-08-17T05:06:27.334Z,99608.31
2022-08-17T05:07:31.596Z,99605.09
2022-08-17T05:08:33.288Z,99603.06
2022-08-17T05:09:34.828Z,99611.59
2022-08-17T05:10:37.204Z,99598.25
2022-08-17T05:11:46.893Z,99618.88
2022-08-17T05:12:48.899Z,99626.22
2022-08-17T05:13:50.666Z,99617.69
2022-08-17T05:14:52.420Z,99609.97
2022-08-17T05:15:55.098Z,99617.31
2022-08-17T05:16:56.615Z,99617.75
2022-08-17T05:17:58.191Z,99614.91
2022-08-17T05:18:59.797Z,99605.16
2022-08-17T05:20:01.292Z,99602.75
2022-08-17T05:21:02.892Z,99616.28
2022-08-17T05:22:05.476Z,99620.78
2022-08-17T05:23:08.075Z,99616.72
2022-08-17T05:24:16.713Z,99623.25
2022-08-17T05:25:34.511Z,99617.56
2022-08-17T05:26:38.970Z,99611.47
2022-08-17T05:27:40.494Z,99604.56
2022-08-17T05:28:43.425Z,99605.41
2022-08-17T05:29:47.571Z,99610.34
2022-08-17T05:30:49.589Z,99612.38
2022-08-17T05:31:51.545Z,99619.75
2022-08-17T05:33:00.203Z,99617.72
2022-08-17T05:34:01.771Z,99624.25
2022-08-17T05:35:03.694Z,99623.03
2022-08-17T05:36:06.110Z,99623.75
2022-08-17T05:37:07.613Z,99635.16
2022-08-17T05:38:09.504Z,99629.84
2022-08-17T05:39:16.319Z,99627.38
2022-08-17T05:40:19.939Z,99633.88
2022-08-17T05:41:21.424Z,99628.19
2022-08-17T05:42:23.091Z,99636.34
2022-08-17T05:43:25.522Z,99642.44
2022-08-17T05:44:27.006Z,99640.34
2022-08-17T05:45:55.271Z,99647.69
2022-08-17T05:46:50.478Z,99650.91
2022-08-17T05:47:51.984Z,99652.13
2022-08-17T05:48:55.834Z,99658.84
2022-08-17T05:49:57.495Z,99653.16
2022-08-17T05:51:03.693Z,99651.56
2022-08-17T05:52:19.590Z,99649.53
2022-08-17T05:53:28.079Z,99653.66
2022-08-17T05:54:42.492Z,99655.34
2022-08-17T05:55:52.811Z,99663.13
2022-08-17T05:56:57.367Z,99653.38
2022-08-17T05:58:07.962Z,99648.97
2022-08-17T05:59:09.499Z,99642.88
2022-08-17T06:00:14.093Z,99638.00
2022-08-17T06:01:18.841Z,99640.13
2022-08-17T06:02:20.390Z,99641.81
2022-08-17T06:03:31.146Z,99644.28
2022-08-17T06:04:38.652Z,99643.91
2022-08-17T06:05:43.567Z,99640.69
2022-08-17T06:06:47.963Z,99641.13
2022-08-17T06:08:04.744Z,99646.44
2022-08-17T06:09:25.743Z,99640.75
2022-08-17T06:10:35.054Z,99648.91
2022-08-17T06:11:42.624Z,99646.91
2022-08-17T06:12:53.581Z,99640.81
2022-08-17T06:13:55.072Z,99644.97
2022-08-17T06:15:02.603Z,99642.41
2022-08-17T06:16:33.776Z,99639.16
2022-08-17T06:17:33.265Z,99629.41
2022-08-17T06:18:45.495Z,99623.81
2022-08-17T06:19:49.580Z,99621.41
2022-08-17T06:20:55.070Z,99628.75
2022-08-17T06:21:56.678Z,99646.31
2022-08-17T06:23:02.090Z,99640.22
2022-08-17T06:24:07.607Z,99644.72
2022-08-17T06:25:19.142Z,99642.69
2022-08-17T06:26:21.515Z,99604.84
2022-08-17T06:27:41.111Z,99646.47
2022-08-17T06:28:53.794Z,99641.59
2022-08-17T06:30:01.055Z,99642.03
2022-08-17T06:31:05.739Z,99644.50
2022-08-17T06:32:08.471Z,99637.59
2022-08-17T06:33:12.551Z,99634.75
2022-08-17T06:34:14.040Z,99629.50
2022-08-17T06:35:30.059Z,99635.63
2022-08-17T06:36:52.902Z,99629.13
2022-08-17T06:38:00.956Z,99634.09
2022-08-17T06:39:21.256Z,99632.88
2022-08-17T06:40:45.530Z,99632.88
2022-08-17T06:42:06.114Z,99640.22
2022-08-17T06:43:07.665Z,99641.06
2022-08-17T06:44:11.591Z,99649.59
2022-08-17T06:45:41.763Z,99634.16
2022-08-17T06:46:48.580Z,99634.97
2022-08-17T06:47:53.259Z,99636.63
2022-08-17T06:49:07.315Z,99639.09
2022-08-17T06:50:16.304Z,99638.72
2022-08-17T06:51:33.514Z,99648.91
2022-08-17T06:52:45.712Z,99659.50
2022-08-17T06:53:51.855Z,99664.38
2022-08-17T06:54:56.146Z,99673.31
2022-08-17T06:56:08.749Z,99677.38
2022-08-17T06:57:15.424Z,99687.94
2022-08-17T06:58:20.782Z,99694.41
2022-08-17T06:59:47.155Z,99689.47
2022-08-17T07:00:59.065Z,99681.25
2022-08-17T07:02:05.225Z,99664.16
2022-08-17T07:03:25.221Z,99669.50
2022-08-17T07:04:28.895Z,99678.06
2022-08-17T07:05:37.667Z,99684.59
2022-08-17T07:06:41.420Z,99669.94
2022-08-17T07:08:02.629Z,99657.72
2022-08-17T07:09:13.180Z,99634.16
2022-08-17T07:10:14.691Z,99625.22
2022-08-17T07:11:36.455Z,99623.63
2022-08-17T07:12:39.410Z,99625.28
2022-08-17T07:13:51.549Z,99628.94
2022-08-17T07:14:58.614Z,99637.13
2022-08-17T07:16:06.586Z,99635.94
2022-08-17T07:17:09.296Z,99657.09
2022-08-17T07:18:10.845Z,99661.97
2022-08-17T07:19:13.124Z,99669.25
2022-08-17T07:20:17.691Z,99684.72
2022-08-17T07:21:26.200Z,99682.19
2022-08-17T07:22:50.545Z,99693.88
2022-08-17T07:24:29.310Z,99690.50
2022-08-17T07:25:31.530Z,99690.06
2022-08-17T07:26:33.033Z,99690.81
2022-08-17T07:27:37.371Z,99694.09
2022-08-17T07:28:39.157Z,99695.75
2022-08-17T07:29:44.037Z,99695.38
2022-08-17T07:30:49.209Z,99696.22
2022-08-17T07:31:50.967Z,99692.16
2022-08-17T07:32:59.558Z,99689.38
2022-08-17T07:34:02.938Z,99689.38
2022-08-17T07:35:07.440Z,99692.66
2022-08-17T07:36:27.744Z,99690.28
2022-08-17T07:37:33.671Z,99703.34
2022-08-17T07:38:35.516Z,99698.09
2022-08-17T07:39:37.125Z,99691.19
2022-08-17T07:41:02.147Z,99683.44
2022-08-17T07:42:03.960Z,99684.72
2022-08-17T07:43:08.595Z,99681.47
2022-08-17T07:44:15.233Z,99680.66
2022-08-17T07:45:35.229Z,99679.00
2022-08-17T07:46:55.853Z,99683.13
2022-08-17T07:48:16.237Z,99685.59
2022-08-17T07:49:24.939Z,99673.38
2022-08-17T07:50:27.126Z,99671.72
2022-08-17T07:51:28.699Z,99672.56
2022-08-17T07:52:50.573Z,99694.91
2022-08-17T07:53:53.645Z,99691.00
2022-08-17T07:54:55.135Z,99714.81
2022-08-17T07:55:56.747Z,99720.91
2022-08-17T07:57:10.496Z,99720.91
2022-08-17T07:58:15.991Z,99717.22
2022-08-17T07:59:24.748Z,99719.69
2022-08-17T08:00:32.325Z,99711.97
2022-08-17T08:01:41.767Z,99711.59
2022-08-17T08:02:45.382Z,99711.59
2022-08-17T08:03:49.366Z,99703.03
2022-08-17T08:05:02.093Z,99696.13
2022-08-17T08:06:04.039Z,99699.41
2022-08-17T08:07:12.270Z,99698.22
2022-08-17T08:08:33.520Z,99699.88
2022-08-17T08:09:36.567Z,99705.22
2022-08-17T08:10:45.369Z,99704.84
2022-08-17T08:11:47.144Z,99702.00
2022-08-17T08:12:48.707Z,99705.28
2022-08-17T08:13:55.275Z,99688.16
2022-08-17T08:14:58.160Z,99694.31
2022-08-17T08:16:25.757Z,99697.19
2022-08-17T08:17:30.603Z,99698.81
2022-08-17T08:18:54.862Z,99697.25
2022-08-17T08:19:58.196Z,99691.53
2022-08-17T08:21:01.675Z,99685.81
2022-08-17T08:22:10.317Z,99677.72
2022-08-17T08:23:44.400Z,99681.41
2022-08-17T08:24:45.930Z,99684.28
2022-08-17T08:25:53.340Z,99693.31
2022-08-17T08:27:08.123Z,99683.88
2022-08-17T08:28:20.125Z,99696.59
2022-08-17T08:29:32.038Z,99708.84
2022-08-17T08:30:34.739Z,99699.84
2022-08-17T08:31:45.284Z,99699.00
2022-08-17T08:32:48.557Z,99697.34
2022-08-17T08:33:57.249Z,99687.94
2022-08-17T08:35:08.207Z,99687.59
2022-08-17T08:36:09.725Z,99694.56
2022-08-17T08:37:18.050Z,99690.06
2022-08-17T08:38:25.462Z,99695.78
2022-08-17T08:39:33.128Z,99693.31
2022-08-17T08:40:38.344Z,99691.63
2022-08-17T08:42:00.168Z,99691.63
2022-08-17T08:43:07.910Z,99702.94
2022-08-17T08:45:00.196Z,99713.53
2022-08-17T08:45:57.784Z,99716.75
2022-08-17T08:47:02.914Z,99720.00
2022-08-17T08:48:22.939Z,99728.56
2022-08-17T08:50:05.715Z,99749.34
2022-08-17T08:51:07.499Z,99756.25
2022-08-17T08:52:14.038Z,99749.28
2022-08-17T08:53:27.808Z,99760.69
2022-08-17T08:54:46.499Z,99759.03
2022-08-17T08:55:47.957Z,99768.41
2022-08-17T08:57:21.876Z,99751.75
2022-08-17T08:58:42.330Z,99755.03
2022-08-17T09:00:02.612Z,99760.38
2022-08-17T09:01:08.746Z,99757.97
2022-08-17T09:02:34.862Z,99763.28
2022-08-17T09:03:52.436Z,99767.47
2022-08-17T09:05:14.968Z,99765.91
2022-08-17T09:06:37.804Z,99755.75
2022-08-17T09:07:42.199Z,99759.50
2022-08-17T09:08:43.680Z,99743.19
2022-08-17T09:09:49.704Z,99742.84
2022-08-17T09:11:00.386Z,99750.66
2022-08-17T09:12:05.264Z,99747.03
2022-08-17T09:13:15.797Z,99736.88
2022-08-17T09:14:28.795Z,99732.84
2022-08-17T09:15:33.484Z,99731.28
2022-08-17T09:16:40.432Z,99735.41
2022-08-17T09:17:47.834Z,99738.69
2022-08-17T09:19:02.629Z,99744.03
2022-08-17T09:20:27.670Z,99742.81
2022-08-17T09:21:47.718Z,99759.56
2022-08-17T09:22:50.603Z,99761.66
2022-08-17T09:23:59.917Z,99764.16
2022-08-17T09:25:10.493Z,99762.94
2022-08-17T09:26:13.932Z,99764.97
2022-08-17T09:27:16.671Z,99754.38
2022-08-17T09:28:24.116Z,99753.47
2022-08-17T09:29:26.393Z,99751.00
2022-08-17T09:30:29.924Z,99753.09
2022-08-17T09:31:35.496Z,99764.16
2022-08-17T09:32:49.928Z,99761.75
2022-08-17T09:33:51.651Z,99763.38
2022-08-17T09:34:54.832Z,99770.31
2022-08-17T09:36:01.259Z,99778.03
2022-08-17T09:37:21.219Z,99779.25
2022-08-17T09:38:34.482Z,99769.09
2022-08-17T09:39:42.008Z,99766.69
2022-08-17T09:40:46.599Z,99756.91
2022-08-17T09:41:49.297Z,99753.69
2022-08-17T09:43:01.402Z,99749.72
2022-08-17T09:44:22.581Z,99750.16
2022-08-17T09:45:25.076Z,99751.03
2022-08-17T09:46:47.968Z,99749.06
2022-08-17T09:47:52.705Z,99756.88
2022-08-17T09:48:56.293Z,99753.25
2022-08-17T09:50:00.360Z,99751.69
2022-08-17T09:51:09.722Z,99749.72
2022-08-17T09:52:17.881Z,99751.03
2022-08-17T09:53:19.483Z,99755.53
2022-08-17T09:54:42.024Z,99755.16
2022-08-17T09:55:51.632Z,99764.59
2022-08-17T09:57:28.463Z,99753.59
2022-08-17T09:58:49.196Z,99748.31
2022-08-17T09:59:50.672Z,99747.59
2022-08-17T10:00:54.475Z,99742.69
2022-08-17T10:01:59.361Z,99753.34
2022-08-17T10:03:16.436Z,99746.44
2022-08-17T10:04:20.345Z,99753.78
2022-08-17T10:05:23.108Z,99753.78
2022-08-17T10:06:34.100Z,99752.19
2022-08-17T10:07:41.258Z,99751.38
2022-08-17T10:08:42.812Z,99755.50
2022-08-17T10:09:55.688Z,99752.63
2022-08-17T10:10:58.969Z,99752.28
2022-08-17T10:12:20.514Z,99760.84
2022-08-17T10:13:28.097Z,99756.25
2022-08-17T10:14:43.659Z,99758.72
2022-08-17T10:15:48.915Z,99761.22
2022-08-17T10:16:55.913Z,99762.03
2022-08-17T10:18:01.228Z,99753.94
2022-08-17T10:19:05.427Z,99747.31
2022-08-17T10:20:10.740Z,99758.72
2022-08-17T10:21:33.818Z,99751.38
2022-08-17T10:22:56.996Z,99771.00
2022-08-17T10:24:25.184Z,99777.53
2022-08-17T10:26:00.289Z,99773.84
2022-08-17T10:27:02.094Z,99771.81
2022-08-17T10:28:07.427Z,99778.72
2022-08-17T10:29:17.652Z,99776.69
2022-08-17T10:30:20.272Z,99773.03
2022-08-17T10:31:36.567Z,99772.63
2022-08-17T10:32:39.730Z,99776.31
2022-08-17T10:33:47.448Z,99778.72
2022-08-17T10:34:49.263Z,99789.72
2022-08-17T10:35:57.893Z,99779.13
2022-08-17T10:37:08.451Z,99784.84
2022-08-17T10:38:25.505Z,99785.66
2022-08-17T10:39:30.536Z,99773.34
2022-08-17T10:40:43.660Z,99786.44
2022-08-17T10:41:46.780Z,99784.00
2022-08-17T10:42:51.992Z,99775.81
2022-08-17T10:44:36.966Z,99778.28
2022-08-17T10:45:15.314Z,99783.63
2022-08-17T10:46:30.308Z,99775.44
2022-08-17T10:48:13.108Z,99782.75
2022-08-17T10:49:22.524Z,99783.56
2022-08-17T10:50:42.582Z,99773.34
2022-08-17T10:51:54.462Z,99770.94
2022-08-17T10:52:56.058Z,99775.50
2022-08-17T10:53:57.753Z,99772.72
2022-08-17T10:55:07.942Z,99775.25
2022-08-17T10:56:12.316Z,99784.25
2022-08-17T10:57:33.017Z,99776.91
2022-08-17T10:58:38.244Z,99768.84
2022-08-17T10:59:39.700Z,99774.09
2022-08-17T11:00:41.275Z,99767.25
2022-08-17T11:01:45.860Z,99766.91
2022-08-17T11:02:54.227Z,99768.63
2022-08-17T11:03:56.771Z,99774.81
2022-08-17T11:05:01.401Z,99763.47
2022-08-17T11:06:14.390Z,99763.56
2022-08-17T11:07:15.896Z,99762.00
2022-08-17T11:08:32.643Z,99759.25
2022-08-17T11:09:53.067Z,99760.13
2022-08-17T11:11:06.552Z,99763.84
2022-08-17T11:12:08.574Z,99769.19
2022-08-17T11:13:13.217Z,99766.31
2022-08-17T11:14:33.170Z,99763.97
2022-08-17T11:15:37.423Z,99775.41
2022-08-17T11:16:52.110Z,99767.22
2022-08-17T11:17:53.610Z,99770.91
2022-08-17T11:18:58.132Z,99774.19
2022-08-17T11:20:08.570Z,99770.91
2022-08-17T11:21:16.170Z,99759.88
2022-08-17T11:22:22.446Z,99759.13
2022-08-17T11:23:26.611Z,99772.63
2022-08-17T11:24:31.395Z,99775.19
2022-08-17T11:25:53.157Z,99773.97
2022-08-17T11:27:01.961Z,99771.06
2022-08-17T11:28:25.622Z,99772.31
2022-08-17T11:29:30.231Z,99776.38
2022-08-17T11:30:48.448Z,99776.72
2022-08-17T11:31:59.298Z,99784.91
2022-08-17T11:33:02.987Z,99778.03
2022-08-17T11:34:14.571Z,99790.19
2022-08-17T11:35:19.057Z,99782.00
2022-08-17T11:36:31.460Z,99785.25
2022-08-17T11:37:36.400Z,99785.72
2022-08-17T11:38:43.948Z,99781.22
2022-08-17T11:40:07.190Z,99774.63
2022-08-17T11:41:17.792Z,99785.38
2022-08-17T11:42:42.264Z,99774.41
2022-08-17T11:43:45.431Z,99780.47
2022-08-17T11:44:51.387Z,99792.66
2022-08-17T11:45:52.915Z,99784.84
2022-08-17T11:47:19.278Z,99788.59
2022-08-17T11:48:42.342Z,99783.78
2022-08-17T11:50:05.447Z,99780.59
2022-08-17T11:51:28.343Z,99778.19
2022-08-17T11:52:35.807Z,99786.38
2022-08-17T11:53:37.299Z,99786.31
2022-08-17T11:54:48.087Z,99776.97
2022-08-17T11:55:53.751Z,99775.72
2022-08-17T11:56:55.242Z,99780.66
2022-08-17T11:57:59.769Z,99779.88
2022-08-17T11:59:01.435Z,99780.69
2022-08-17T12:00:12.565Z,99774.22
2022-08-17T12:01:22.907Z,99779.88
2022-08-17T12:02:34.997Z,99779.88
2022-08-17T12:03:42.378Z,99787.31
2022-08-17T12:05:14.283Z,99782.41
2022-08-17T12:06:24.987Z,99782.41
2022-08-17T12:07:32.757Z,99789.28
2022-08-17T12:08:34.284Z,99777.38
2022-08-17T12:09:39.181Z,99772.41
2022-08-17T12:10:48.882Z,99782.31
2022-08-17T12:12:13.207Z,99771.75
2022-08-17T12:13:15.863Z,99774.50
2022-08-17T12:14:29.402Z,99785.59
2022-08-17T12:15:45.048Z,99768.09
2022-08-17T12:16:46.610Z,99774.28
2022-08-17T12:17:52.848Z,99780.44
2022-08-17T12:18:58.609Z,99785.00
2022-08-17T12:20:19.900Z,99791.56
2022-08-17T12:21:21.419Z,99777.72
2022-08-17T12:22:32.945Z,99779.31
2022-08-17T12:23:38.027Z,99784.16
2022-08-17T12:24:45.372Z,99773.13
2022-08-17T12:26:07.758Z,99785.34
2022-08-17T12:27:09.552Z,99786.59
2022-08-17T12:28:30.381Z,99778.44
2022-08-17T12:29:38.427Z,99776.13
2022-08-17T12:30:40.906Z,99778.66
2022-08-17T12:31:44.248Z,99778.75
2022-08-17T12:32:48.655Z,99772.25
2022-08-17T12:33:51.758Z,99777.13
2022-08-17T12:34:53.911Z,99773.94
2022-08-17T12:35:59.304Z,99777.66
2022-08-17T12:37:02.113Z,99775.22
2022-08-17T12:38:04.473Z,99770.72
2022-08-17T12:39:13.832Z,99767.44
2022-08-17T12:40:23.216Z,99767.44
2022-08-17T12:41:34.968Z,99758.34
2022-08-17T12:42:37.698Z,99775.91
2022-08-17T12:43:39.182Z,99755.97
2022-08-17T12:44:50.278Z,99762.53
2022-08-17T12:45:57.225Z,99756.75
2022-08-17T12:47:01.860Z,99764.13
2022-08-17T12:48:07.850Z,99756.78
2022-08-17T12:49:16.751Z,99757.63
2022-08-17T12:50:28.285Z,99755.56
2022-08-17T12:51:31.751Z,99755.19
2022-08-17T12:52:33.378Z,99753.16
2022-08-17T12:53:37.870Z,99743.34
2022-08-17T12:54:42.474Z,99752.44
2022-08-17T12:55:44.341Z,99740.59
2022-08-17T12:56:46.101Z,99742.69
2022-08-17T12:57:55.828Z,99748.84
2022-08-17T12:58:57.757Z,99746.75
2022-08-17T13:00:00.830Z,99746.38
2022-08-17T13:01:04.265Z,99752.56
2022-08-17T13:02:05.848Z,99744.00
2022-08-17T13:03:09.539Z,99741.53
2022-08-17T13:04:14.248Z,99735.81
2022-08-17T13:05:19.117Z,99735.00
2022-08-17T13:06:33.772Z,99728.50
2022-08-17T13:07:36.805Z,99734.69
2022-08-17T13:08:43.128Z,99728.59
2022-08-17T13:09:49.877Z,99731.09